createdAt,value
2022-09-23T00:01:58.621Z,82.71
2022-09-23T00:05:06.942Z,82.37
2022-09-23T00:08:15.170Z,82.41
2022-09-23T00:11:23.791Z,82.36
2022-09-23T00:14:29.669Z,82.32
2022-09-23T00:17:38.973Z,82.72
2022-09-23T00:20:44.584Z,82.48
2022-09-23T00:23:52.062Z,82.33
2022-09-23T00:26:57.996Z,82.79
2022-09-23T00:30:09.473Z,82.59
2022-09-23T00:33:18.001Z,82.93
2022-09-23T00:36:24.820Z,82.37
2022-09-23T00:39:30.417Z,82.79
2022-09-23T00:42:36.837Z,82.89
2022-09-23T00:45:42.752Z,83.09
2022-09-23T00:49:03.388Z,83.01
2022-09-23T00:52:16.053Z,83.17
2022-09-23T00:55:28.019Z,83.19
2022-09-23T00:58:37.298Z,82.70
2022-09-23T01:01:44.287Z,82.98
2022-09-23T01:04:54.397Z,83.08
2022-09-23T01:08:04.225Z,82.66
2022-09-23T01:11:21.937Z,82.92
2022-09-23T01:14:40.678Z,82.93
2022-09-23T01:17:54.479Z,83.16
2022-09-23T01:21:21.668Z,83.19
2022-09-23T01:24:49.141Z,83.23
2022-09-23T01:28:16.000Z,83.25
2022-09-23T01:31:31.709Z,83.71
2022-09-23T01:34:45.199Z,83.67
2022-09-23T01:37:55.381Z,83.94
2022-09-23T01:41:09.600Z,84.14
2022-09-23T01:44:22.122Z,84.13
2022-09-23T01:47:35.697Z,84.13
2022-09-23T01:51:03.478Z,84.42
2022-09-23T01:54:16.065Z,84.41
2022-09-23T01:57:28.686Z,84.42
2022-09-23T02:00:40.852Z,84.58
2022-09-23T02:03:55.484Z,84.38
2022-09-23T02:07:06.580Z,84.27
2022-09-23T02:10:18.627Z,84.59
2022-09-23T02:13:32.778Z,84.41
2022-09-23T02:16:42.815Z,84.46
2022-09-23T02:19:56.733Z,84.37
2022-09-23T02:23:06.446Z,84.27
2022-09-23T02:26:21.886Z,84.37
2022-09-23T02:29:34.355Z,84.25
2022-09-23T02:32:51.832Z,84.37
2022-09-23T02:36:06.685Z,84.30
2022-09-23T02:39:16.817Z,84.24
2022-09-23T02:42:26.463Z,84.40
2022-09-23T02:45:33.870Z,84.01
2022-09-23T02:48:44.078Z,84.07
2022-09-23T02:51:54.705Z,84.22
2022-09-23T02:55:01.066Z,84.19
2022-09-23T02:58:08.794Z,83.96
2022-09-23T03:01:22.289Z,84.39
2022-09-23T03:04:38.586Z,84.65
2022-09-23T03:07:55.284Z,84.19
2022-09-23T03:11:08.799Z,84.44
2022-09-23T03:14:22.281Z,84.50
2022-09-23T03:17:37.746Z,84.27
2022-09-23T03:20:49.705Z,84.14
2022-09-23T03:24:03.729Z,84.12
2022-09-23T03:27:15.174Z,83.99
2022-09-23T03:30:22.133Z,83.61
2022-09-23T03:33:30.558Z,83.43
2022-09-23T03:36:55.023Z,83.39
2022-09-23T03:40:12.300Z,83.58
2022-09-23T03:43:19.662Z,83.61
2022-09-23T03:46:28.722Z,83.74
2022-09-23T03:49:40.027Z,83.71
2022-09-23T03:52:46.611Z,83.51
2022-09-23T03:55:55.792Z,83.54
2022-09-23T03:59:03.324Z,83.48
2022-09-23T04:02:10.542Z,83.61
2022-09-23T04:05:18.212Z,83.92
2022-09-23T04:08:24.909Z,83.94
2022-09-23T04:11:33.221Z,83.95
2022-09-23T04:14:39.635Z,84.08
2022-09-23T04:17:45.207Z,84.02
2022-09-23T04:20:51.678Z,84.12
2022-09-23T04:23:57.258Z,84.04
2022-09-23T04:27:06.551Z,83.73
2022-09-23T04:30:13.050Z,83.93
2022-09-23T04:33:19.698Z,83.75
2022-09-23T04:36:25.512Z,83.51
2022-09-23T04:39:32.157Z,83.32
2022-09-23T04:42:40.511Z,83.33
2022-09-23T04:45:47.346Z,83.22
2022-09-23T04:48:52.982Z,83.48
2022-09-23T04:51:59.663Z,83.51
2022-09-23T04:55:10.958Z,83.67
2022-09-23T04:58:23.180Z,83.64
2022-09-23T05:01:31.305Z,83.96
2022-09-23T05:04:38.279Z,84.18
2022-09-23T05:07:43.899Z,84.05
2022-09-23T05:10:50.331Z,84.13
2022-09-23T05:13:58.760Z,84.14
2022-09-23T05:17:08.373Z,84.14
2022-09-23T05:20:15.920Z,84.15
2022-09-23T05:23:22.839Z,84.58
2022-09-23T05:26:29.877Z,84.36
2022-09-23T05:29:39.374Z,84.49
2022-09-23T05:32:45.806Z,84.48
2022-09-23T05:35:54.570Z,84.27
2022-09-23T05:39:01.341Z,84.37
2022-09-23T05:42:12.586Z,84.43
2022-09-23T05:45:21.019Z,84.69
2022-09-23T05:48:27.519Z,84.15
2022-09-23T05:51:33.702Z,83.66
2022-09-23T05:54:41.024Z,83.14
2022-09-23T05:57:46.572Z,83.64
2022-09-23T06:00:56.916Z,84.06
2022-09-23T06:04:03.547Z,83.52
2022-09-23T06:07:10.437Z,83.63
2022-09-23T06:10:17.485Z,83.63
2022-09-23T06:13:23.908Z,83.40
2022-09-23T06:16:34.180Z,83.34
2022-09-23T06:19:41.014Z,83.03
2022-09-23T06:22:47.475Z,83.08
2022-09-23T06:25:55.740Z,83.15
2022-09-23T06:29:03.327Z,82.47
2022-09-23T06:32:12.846Z,82.62
2022-09-23T06:35:26.488Z,82.33
2022-09-23T06:38:34.805Z,82.25
2022-09-23T06:41:40.400Z,82.65
2022-09-23T06:44:51.496Z,82.32
2022-09-23T06:48:03.333Z,81.79
2022-09-23T06:51:11.424Z,81.45
2022-09-23T06:54:17.098Z,81.52
2022-09-23T06:57:24.551Z,81.55
2022-09-23T07:00:30.156Z,80.81
2022-09-23T07:03:40.947Z,81.53
2022-09-23T07:06:46.475Z,81.25
2022-09-23T07:09:53.115Z,81.34
2022-09-23T07:12:59.119Z,80.46
2022-09-23T07:16:06.396Z,79.60
2022-09-23T07:19:15.221Z,79.10
2022-09-23T07:22:21.804Z,79.45
2022-09-23T07:25:27.705Z,79.38
2022-09-23T07:28:34.205Z,78.94
2022-09-23T07:31:40.325Z,78.65
2022-09-23T07:34:50.055Z,77.52
2022-09-23T07:37:55.590Z,77.79
2022-09-23T07:41:06.938Z,76.84
2022-09-23T07:44:13.767Z,76.30
2022-09-23T07:47:20.717Z,76.30
2022-09-23T07:50:32.047Z,76.30
2022-09-23T07:53:38.481Z,76.40
2022-09-23T07:56:45.213Z,74.78
2022-09-23T07:59:51.620Z,73.81
2022-09-23T08:03:00.366Z,72.88
2022-09-23T08:06:15.801Z,72.93
2022-09-23T08:09:22.920Z,72.70
2022-09-23T08:12:30.565Z,72.16
2022-09-23T08:15:36.177Z,71.93
2022-09-23T08:18:42.582Z,71.94
2022-09-23T08:21:52.410Z,71.38
2022-09-23T08:24:58.805Z,70.42
2022-09-23T08:28:06.287Z,70.39
2022-09-23T08:31:13.798Z,70.17
2022-09-23T08:34:20.399Z,70.23
2022-09-23T08:37:30.043Z,69.56
2022-09-23T08:40:38.925Z,69.73
2022-09-23T08:43:51.242Z,69.77
2022-09-23T08:47:06.351Z,70.08
2022-09-23T08:50:21.165Z,70.17
2022-09-23T08:53:32.717Z,68.46
2022-09-23T08:56:42.487Z,67.71
2022-09-23T08:59:49.598Z,68.16
2022-09-23T09:02:58.114Z,66.64
2022-09-23T09:06:04.263Z,66.39
2022-09-23T09:09:24.895Z,66.29
2022-09-23T09:12:37.450Z,66.08
2022-09-23T09:15:55.202Z,65.21
2022-09-23T09:19:03.352Z,64.07
2022-09-23T09:22:17.122Z,62.25
2022-09-23T09:25:39.955Z,62.27
2022-09-23T09:28:52.127Z,62.97
2022-09-23T09:31:58.311Z,62.88
2022-09-23T09:35:12.909Z,62.92
2022-09-23T09:38:22.246Z,63.02
2022-09-23T09:41:33.353Z,62.32
2022-09-23T09:44:45.092Z,61.85
2022-09-23T09:47:58.742Z,61.39
2022-09-23T09:51:21.766Z,61.77
2022-09-23T09:54:28.970Z,61.60
2022-09-23T09:57:42.906Z,61.79
2022-09-23T10:00:50.825Z,62.37
2022-09-23T10:03:59.613Z,62.20
2022-09-23T10:07:10.717Z,61.77
2022-09-23T10:10:36.695Z,62.38
2022-09-23T10:14:06.326Z,62.69
2022-09-23T10:17:20.818Z,61.28
2022-09-23T10:20:28.009Z,61.10
2022-09-23T10:23:35.194Z,60.44
2022-09-23T10:26:46.496Z,59.60
2022-09-23T10:29:58.115Z,59.39
2022-09-23T10:33:06.637Z,59.39
2022-09-23T10:36:13.937Z,58.17
2022-09-23T10:39:36.215Z,58.80
2022-09-23T10:43:15.511Z,58.97
2022-09-23T10:46:48.740Z,57.59
2022-09-23T10:50:17.568Z,55.85
2022-09-23T10:53:35.671Z,56.12
2022-09-23T10:56:48.826Z,55.07
2022-09-23T11:00:06.413Z,55.63
2022-09-23T11:03:58.544Z,54.87
2022-09-23T11:07:15.437Z,55.70
2022-09-23T11:11:03.369Z,54.56
2022-09-23T11:14:32.902Z,54.02
2022-09-23T11:18:06.572Z,54.52
2022-09-23T11:21:37.246Z,54.79
2022-09-23T11:25:07.112Z,53.98
2022-09-23T11:28:50.797Z,53.06
2022-09-23T11:32:11.179Z,53.89
2022-09-23T11:35:23.103Z,52.80
2022-09-23T11:38:37.881Z,51.69
2022-09-23T11:41:45.832Z,51.71
2022-09-23T11:44:57.931Z,51.29
2022-09-23T11:48:08.629Z,50.88
2022-09-23T11:51:19.356Z,52.00
2022-09-23T11:54:34.979Z,51.21
2022-09-23T11:57:49.613Z,52.20
2022-09-23T12:01:03.453Z,52.83
2022-09-23T12:04:20.470Z,52.20
2022-09-23T12:07:32.981Z,52.30
2022-09-23T12:10:52.743Z,52.09
2022-09-23T12:14:10.561Z,52.19
2022-09-23T12:17:35.319Z,51.81
2022-09-23T12:21:06.385Z,52.37
2022-09-23T12:24:47.607Z,50.62
2022-09-23T12:27:59.230Z,50.22
2022-09-23T12:31:08.998Z,50.77
2022-09-23T12:34:26.469Z,49.94
2022-09-23T12:37:37.406Z,50.50
2022-09-23T12:40:44.930Z,50.02
2022-09-23T12:43:58.314Z,49.50
2022-09-23T12:47:34.062Z,50.06
2022-09-23T12:50:54.456Z,49.07
2022-09-23T12:54:26.579Z,49.86
2022-09-23T12:57:45.672Z,50.61
2022-09-23T13:01:09.901Z,50.13
2022-09-23T13:04:53.132Z,51.06
2022-09-23T13:08:06.044Z,51.36
2022-09-23T13:11:22.016Z,51.55
2022-09-23T13:14:30.770Z,52.21
2022-09-23T13:17:40.795Z,51.69
2022-09-23T13:20:48.540Z,51.81
2022-09-23T13:24:23.386Z,52.05
2022-09-23T13:27:35.842Z,52.19
2022-09-23T13:30:52.443Z,51.35
2022-09-23T13:34:07.612Z,51.66
2022-09-23T13:37:22.902Z,50.37
2022-09-23T13:40:31.833Z,49.96
2022-09-23T13:43:41.647Z,49.85
2022-09-23T13:46:53.067Z,50.48
2022-09-23T13:50:03.207Z,50.72
2022-09-23T13:53:13.564Z,51.59
2022-09-23T13:56:19.422Z,51.26
2022-09-23T13:59:32.402Z,51.24
2022-09-23T14:02:45.571Z,51.88
2022-09-23T14:05:56.120Z,51.72
2022-09-23T14:09:06.621Z,52.01
2022-09-23T14:12:14.447Z,51.76
2022-09-23T14:15:22.783Z,52.47
2022-09-23T14:18:35.123Z,52.64
2022-09-23T14:21:43.615Z,52.18
2022-09-23T14:24:51.530Z,51.50
2022-09-23T14:28:00.369Z,51.25
2022-09-23T14:31:08.704Z,51.56
2022-09-23T14:34:42.256Z,52.01
2022-09-23T14:38:09.381Z,52.13
2022-09-23T14:41:25.045Z,52.00
2022-09-23T14:44:33.461Z,52.01
2022-09-23T14:47:39.577Z,51.91
2022-09-23T14:50:51.552Z,52.34
2022-09-23T14:54:27.400Z,52.50
2022-09-23T14:57:34.285Z,53.12
2022-09-23T15:00:39.994Z,53.17
2022-09-23T15:03:50.751Z,53.47
2022-09-23T15:07:03.382Z,53.70
2022-09-23T15:10:23.809Z,53.56
2022-09-23T15:13:32.971Z,53.56
2022-09-23T15:16:42.058Z,53.52
2022-09-23T15:19:52.701Z,53.32
2022-09-23T15:22:59.510Z,52.98
2022-09-23T15:26:14.707Z,52.43
2022-09-23T15:29:21.487Z,52.83
2022-09-23T15:32:27.311Z,52.07
2022-09-23T15:35:35.221Z,52.10
2022-09-23T15:38:45.249Z,52.19
2022-09-23T15:41:54.425Z,52.49
2022-09-23T15:45:01.164Z,52.58
2022-09-23T15:48:13.806Z,52.61
2022-09-23T15:51:19.785Z,53.05
2022-09-23T15:54:26.369Z,53.12
2022-09-23T15:57:34.703Z,53.39
2022-09-23T16:00:41.345Z,53.88
2022-09-23T16:03:46.965Z,53.98
2022-09-23T16:06:53.375Z,54.23
2022-09-23T16:09:59.026Z,54.37
2022-09-23T16:13:13.974Z,54.58
2022-09-23T16:16:21.530Z,54.73
2022-09-23T16:19:28.092Z,54.88
2022-09-23T16:22:34.220Z,55.00
2022-09-23T16:25:40.991Z,55.03
2022-09-23T16:28:51.191Z,55.05
2022-09-23T16:31:57.670Z,55.13
2022-09-23T16:35:03.578Z,55.36
2022-09-23T16:38:10.035Z,56.44
2022-09-23T16:41:15.644Z,57.13
2022-09-23T16:44:25.051Z,57.75
2022-09-23T16:47:30.702Z,57.91
2022-09-23T16:50:37.773Z,57.75
2022-09-23T16:53:44.346Z,57.17
2022-09-23T16:56:50.927Z,57.23
2022-09-23T17:00:15.316Z,57.16
2022-09-23T17:03:37.608Z,58.46
2022-09-23T17:06:46.503Z,59.44
2022-09-23T17:09:53.614Z,60.35
2022-09-23T17:13:01.244Z,60.38
2022-09-23T17:16:11.998Z,60.94
2022-09-23T17:19:17.850Z,61.37
2022-09-23T17:22:24.306Z,61.70
2022-09-23T17:25:30.246Z,62.10
2022-09-23T17:28:36.653Z,62.76
2022-09-23T17:31:45.061Z,63.30
2022-09-23T17:34:54.363Z,63.28
2022-09-23T17:37:59.933Z,63.95
2022-09-23T17:41:10.245Z,64.27
2022-09-23T17:44:17.763Z,64.71
2022-09-23T17:47:27.224Z,65.03
2022-09-23T17:50:33.695Z,65.10
2022-09-23T17:53:42.374Z,65.79
2022-09-23T17:56:48.002Z,65.81
2022-09-23T17:59:56.221Z,66.43
2022-09-23T18:03:06.362Z,66.22
2022-09-23T18:06:15.662Z,66.56
2022-09-23T18:09:22.091Z,67.03
2022-09-23T18:12:28.541Z,67.26
2022-09-23T18:15:34.223Z,67.47
2022-09-23T18:18:43.473Z,67.46
2022-09-23T18:21:51.179Z,67.61
2022-09-23T18:24:57.674Z,68.37
2022-09-23T18:28:03.394Z,68.76
2022-09-23T18:31:10.181Z,69.10
2022-09-23T18:34:20.454Z,69.29
2022-09-23T18:37:26.992Z,69.71
2022-09-23T18:40:34.562Z,69.88
2022-09-23T18:43:46.326Z,70.25
2022-09-23T18:46:54.085Z,70.19
2022-09-23T18:50:18.974Z,70.57
2022-09-23T18:53:24.540Z,71.07
2022-09-23T18:56:37.407Z,71.48
2022-09-23T18:59:44.565Z,71.62
2022-09-23T19:02:51.066Z,71.80
2022-09-23T19:06:06.632Z,71.82
2022-09-23T19:09:13.822Z,72.28
2022-09-23T19:12:19.411Z,72.40
2022-09-23T19:15:25.893Z,72.34
2022-09-23T19:18:31.603Z,72.72
2022-09-23T19:21:40.846Z,72.76
2022-09-23T19:24:46.502Z,72.71
2022-09-23T19:27:54.013Z,72.77
2022-09-23T19:30:59.673Z,72.68
2022-09-23T19:34:10.890Z,73.04
2022-09-23T19:37:19.374Z,73.05
2022-09-23T19:40:25.975Z,73.13
2022-09-23T19:43:31.689Z,73.33
2022-09-23T19:46:40.898Z,73.31
2022-09-23T19:49:47.555Z,73.34
2022-09-23T19:52:56.832Z,73.63
2022-09-23T19:56:06.356Z,73.69
2022-09-23T19:59:17.788Z,74.11
2022-09-23T20:02:24.403Z,74.14
2022-09-23T20:05:31.099Z,74.15
2022-09-23T20:08:41.836Z,74.42
2022-09-23T20:11:48.352Z,74.48
2022-09-23T20:14:53.966Z,74.54
2022-09-23T20:18:00.403Z,74.76
2022-09-23T20:21:08.837Z,75.00
2022-09-23T20:24:18.070Z,75.09
2022-09-23T20:27:23.725Z,75.12
2022-09-23T20:30:30.144Z,75.12
2022-09-23T20:33:35.826Z,75.10
2022-09-23T20:36:44.384Z,75.21
2022-09-23T20:39:54.326Z,75.54
2022-09-23T20:43:04.489Z,75.45
2022-09-23T20:46:10.046Z,75.31
2022-09-23T20:49:16.677Z,75.29
2022-09-23T20:52:23.064Z,75.40
2022-09-23T20:55:32.861Z,75.45
2022-09-23T20:58:39.284Z,75.78
2022-09-23T21:01:48.050Z,75.83
2022-09-23T21:04:53.692Z,75.83
2022-09-23T21:08:03.091Z,75.83
2022-09-23T21:11:15.218Z,75.90
2022-09-23T21:14:22.294Z,76.28
2022-09-23T21:17:28.174Z,76.72
2022-09-23T21:20:34.846Z,76.76
2022-09-23T21:23:42.128Z,76.69
2022-09-23T21:26:51.576Z,76.51
2022-09-23T21:29:57.128Z,76.52
2022-09-23T21:33:03.533Z,76.51
2022-09-23T21:36:10.727Z,76.64
2022-09-23T21:39:17.164Z,76.90
2022-09-23T21:42:25.895Z,77.28
2022-09-23T21:45:32.293Z,77.19
2022-09-23T21:48:41.236Z,77.52
2022-09-23T21:51:47.768Z,77.56
2022-09-23T21:54:53.381Z,77.57
2022-09-23T21:58:03.375Z,77.51
2022-09-23T22:01:13.508Z,77.25
2022-09-23T22:04:22.026Z,77.08
2022-09-23T22:07:27.675Z,77.27
2022-09-23T22:10:34.044Z,77.23
2022-09-23T22:13:42.372Z,77.41
2022-09-23T22:16:48.968Z,77.75
2022-09-23T22:19:54.516Z,77.76
2022-09-23T22:23:00.905Z,77.85
2022-09-23T22:26:07.056Z,78.04
2022-09-23T22:29:33.316Z,78.32
2022-09-23T22:32:54.251Z,78.64
2022-09-23T22:36:05.828Z,78.80
2022-09-23T22:39:11.360Z,78.33
2022-09-23T22:42:18.272Z,78.14
2022-09-23T22:45:27.125Z,78.01
2022-09-23T22:48:33.817Z,78.42
2022-09-23T22:51:40.698Z,78.15
2022-09-23T22:54:47.107Z,78.18
2022-09-23T22:57:53.496Z,78.07
2022-09-23T23:01:02.855Z,78.06
2022-09-23T23:04:08.938Z,77.89
2022-09-23T23:07:16.453Z,78.00
2022-09-23T23:10:25.004Z,77.89
2022-09-23T23:13:34.473Z,78.03
2022-09-23T23:16:44.112Z,77.98
2022-09-23T23:19:50.686Z,77.86
2022-09-23T23:22:56.539Z,77.96
2022-09-23T23:26:10.110Z,77.91
2022-09-23T23:29:18.259Z,78.19
2022-09-23T23:32:27.503Z,77.97
2022-09-23T23:35:33.138Z,78.29
2022-09-23T23:38:40.476Z,78.18
2022-09-23T23:41:46.291Z,77.97
2022-09-23T23:44:52.701Z,77.84
2022-09-23T23:48:01.047Z,77.81
2022-09-23T23:51:11.050Z,77.68
2022-09-23T23:54:17.386Z,77.77
2022-09-23T23:57:24.090Z,77.71
